Time;durP1;ratioP1;P1;durP2;ratioP2;P2;SDS_P1;SDS_P2;PMS_P1;PMS_P2;Temp;Humidity;BMP_temperature;BMP_pressure;BME280_temperature;BME280_humidity;BME280_pressure;Samples;Min_cycle;Max_cycle;Signal;HPM_P1;HPM_P2
2023/03/11 00:01:00;;;;;;;7.67;2.30;;;2.80;99.90;;;;;;5115544;28;20474;-57
2023/03/11 00:03:27;;;;;;;4.10;2.07;;;2.80;99.90;;;;;;5115374;28;20541;-57
2023/03/11 00:05:55;;;;;;;9.30;2.10;;;2.80;99.90;;;;;;5115369;28;20549;-57
2023/03/11 00:08:24;;;;;;;6.10;2.30;;;2.80;99.90;;;;;;5115292;28;20478;-57
2023/03/11 00:10:53;;;;;;;5.87;1.87;;;2.80;99.90;;;;;;5115155;28;20485;-57
2023/03/11 00:13:20;;;;;;;4.30;3.10;;;2.80;99.90;;;;;;5115183;28;20834;-57
2023/03/11 00:15:49;;;;;;;4.77;1.70;;;2.90;99.90;;;;;;5115142;28;20449;-57
2023/03/11 00:18:17;;;;;;;4.20;1.67;;;2.90;99.90;;;;;;5114878;28;20962;-57
2023/03/11 00:20:45;;;;;;;7.13;1.97;;;3.00;99.90;;;;;;5115163;28;20446;-57
2023/03/11 00:23:14;;;;;;;9.10;2.63;;;2.90;99.90;;;;;;5113768;28;20845;-57
2023/03/11 00:25:44;;;;;;;3.33;2.10;;;2.90;99.90;;;;;;5114683;28;20932;-57
2023/03/11 00:28:12;;;;;;;6.67;2.10;;;3.00;99.90;;;;;;5114671;28;20915;-57
2023/03/11 00:30:40;;;;;;;6.20;1.47;;;2.90;99.90;;;;;;5114897;28;20845;-57
2023/03/11 00:33:07;;;;;;;8.60;2.07;;;3.00;99.90;;;;;;5114716;28;20532;-57
2023/03/11 00:35:35;;;;;;;6.37;1.60;;;3.00;99.90;;;;;;5115763;28;20451;-57
2023/03/11 00:38:04;;;;;;;7.97;2.23;;;3.10;99.90;;;;;;5114571;28;20451;-57
2023/03/11 00:40:33;;;;;;;6.80;2.03;;;3.10;99.90;;;;;;5114369;28;20450;-57
2023/03/11 00:43:01;;;;;;;5.80;1.90;;;3.10;99.90;;;;;;5114786;28;20474;-57
2023/03/11 00:45:29;;;;;;;8.63;2.00;;;3.10;99.90;;;;;;5114357;28;20939;-57
2023/03/11 00:47:56;;;;;;;8.90;1.93;;;3.20;99.90;;;;;;5114589;28;20447;-57
2023/03/11 00:50:25;;;;;;;6.20;1.97;;;3.20;99.90;;;;;;5114443;28;20443;-57
2023/03/11 00:52:53;;;;;;;8.37;1.57;;;3.30;99.90;;;;;;5114547;28;20867;-57
2023/03/11 00:55:22;;;;;;;5.30;2.10;;;3.30;99.90;;;;;;5114291;28;20856;-57
2023/03/11 00:57:51;;;;;;;9.50;2.60;;;3.30;99.90;;;;;;5114370;28;20461;-57
2023/03/11 01:00:23;;;;;;;6.60;2.10;;;3.30;99.90;;;;;;5114554;28;20446;-57
2023/03/11 01:02:50;;;;;;;7.20;2.50;;;3.30;99.90;;;;;;5114307;28;20466;-57
2023/03/11 01:05:19;;;;;;;7.20;1.67;;;3.30;99.90;;;;;;5114584;28;20459;-57
2023/03/11 01:07:46;;;;;;;4.90;2.37;;;3.20;99.90;;;;;;5114515;28;20439;-57
2023/03/11 01:10:13;;;;;;;5.43;1.67;;;3.20;99.90;;;;;;5115771;28;20852;-57
2023/03/11 01:12:39;;;;;;;9.53;2.13;;;3.20;99.90;;;;;;5115158;28;20482;-57
2023/03/11 01:15:07;;;;;;;8.47;2.40;;;3.20;99.90;;;;;;5114951;28;20868;-57
2023/03/11 01:17:35;;;;;;;13.60;2.30;;;3.20;99.90;;;;;;5114389;28;21009;-57
2023/03/11 01:20:04;;;;;;;6.80;2.07;;;3.20;99.90;;;;;;5114729;28;20447;-57
2023/03/11 01:22:31;;;;;;;3.73;1.90;;;3.20;99.90;;;;;;5114310;28;20473;-58
2023/03/11 01:24:58;;;;;;;5.53;1.60;;;3.10;99.90;;;;;;5114706;28;20470;-57
2023/03/11 01:27:25;;;;;;;6.67;1.90;;;3.10;99.90;;;;;;5114553;28;20790;-57
2023/03/11 01:29:52;;;;;;;6.47;1.93;;;3.10;99.90;;;;;;5115123;28;20482;-57
2023/03/11 01:32:18;;;;;;;5.73;2.50;;;3.10;99.90;;;;;;5114072;28;20861;-57
2023/03/11 01:34:46;;;;;;;4.50;1.90;;;3.00;99.90;;;;;;5113625;28;20855;-57
2023/03/11 01:37:13;;;;;;;14.33;2.13;;;3.00;99.90;;;;;;5114115;28;20511;-57
2023/03/11 01:39:40;;;;;;;2.70;1.60;;;2.90;99.90;;;;;;5113672;28;20460;-57
2023/03/11 01:42:07;;;;;;;6.97;2.67;;;2.90;99.90;;;;;;5113959;28;20467;-57
2023/03/11 01:44:34;;;;;;;6.70;2.00;;;2.80;99.90;;;;;;5114106;28;20450;-57
2023/03/11 01:47:39;;;;;;;5.03;1.63;;;2.70;99.90;;;;;;5114245;28;20809;-57
2023/03/11 01:50:12;;;;;;;5.80;2.63;;;2.60;99.90;;;;;;5114271;28;20438;-57
2023/03/11 01:52:40;;;;;;;5.27;1.83;;;2.60;99.90;;;;;;5114458;28;20521;-57
2023/03/11 01:55:08;;;;;;;6.53;2.20;;;2.50;99.90;;;;;;5113610;28;20450;-57
2023/03/11 01:57:37;;;;;;;4.87;1.67;;;2.50;99.90;;;;;;5113746;28;20824;-57
2023/03/11 02:00:09;;;;;;;7.30;1.70;;;2.50;99.90;;;;;;5113803;28;20450;-57
2023/03/11 02:02:40;;;;;;;7.47;1.67;;;2.40;99.90;;;;;;5113765;28;20509;-57
2023/03/11 02:05:10;;;;;;;4.80;1.40;;;2.40;99.90;;;;;;5113836;28;20502;-57
2023/03/11 02:07:39;;;;;;;6.20;1.77;;;2.30;99.90;;;;;;5113691;28;20677;-57
2023/03/11 02:10:07;;;;;;;7.43;1.60;;;2.30;99.90;;;;;;5113902;28;20450;-57
2023/03/11 02:12:36;;;;;;;6.83;1.90;;;2.30;99.90;;;;;;5113455;28;20491;-57
2023/03/11 02:15:05;;;;;;;4.37;1.70;;;2.30;99.90;;;;;;5113597;28;20451;-57
2023/03/11 02:17:32;;;;;;;5.50;1.63;;;2.30;99.90;;;;;;5113680;28;20817;-57
2023/03/11 02:20:14;;;;;;;5.53;1.73;;;2.30;99.90;;;;;;5113426;28;20443;-57
2023/03/11 02:22:41;;;;;;;4.93;1.70;;;2.30;99.90;;;;;;5113180;28;20980;-57
2023/03/11 02:25:16;;;;;;;22.93;3.23;;;2.30;99.90;;;;;;5113059;28;20816;-57
2023/03/11 02:27:47;;;;;;;4.63;1.77;;;2.30;99.90;;;;;;5113428;28;20437;-57
2023/03/11 02:30:16;;;;;;;5.40;1.70;;;2.30;99.90;;;;;;5113114;28;20438;-57
2023/03/11 02:32:46;;;;;;;4.00;2.00;;;2.30;99.90;;;;;;5112929;28;20565;-57
2023/03/11 02:35:12;;;;;;;5.17;2.10;;;2.30;99.90;;;;;;5112971;28;21023;-57
2023/03/11 02:37:44;;;;;;;5.27;2.23;;;2.20;99.90;;;;;;5112803;28;20979;-57
2023/03/11 02:40:39;;;;;;;7.37;2.00;;;2.10;99.90;;;;;;5113318;28;20439;-57
2023/03/11 02:43:11;;;;;;;10.63;1.90;;;2.20;99.90;;;;;;5113208;28;20474;-57
2023/03/11 02:45:39;;;;;;;7.47;1.97;;;2.20;99.90;;;;;;5114707;28;20426;-57
2023/03/11 02:48:08;;;;;;;6.40;1.70;;;2.20;99.90;;;;;;5117438;28;20509;-57
2023/03/11 02:50:36;;;;;;;7.20;1.90;;;2.10;99.90;;;;;;5116955;28;20455;-57
2023/03/11 02:53:03;;;;;;;3.60;2.00;;;2.10;99.90;;;;;;5116682;28;20482;-57
2023/03/11 02:55:30;;;;;;;5.03;1.30;;;2.10;99.90;;;;;;5116751;28;20447;-57
2023/03/11 02:57:57;;;;;;;3.60;1.60;;;2.20;99.90;;;;;;5116793;28;20467;-57
2023/03/11 03:00:25;;;;;;;10.60;2.00;;;2.10;99.90;;;;;;5116699;28;20450;-57
2023/03/11 03:02:52;;;;;;;4.10;2.13;;;2.10;99.90;;;;;;5116547;28;20485;-57
2023/03/11 03:05:20;;;;;;;3.53;1.60;;;2.10;99.90;;;;;;5116603;28;20450;-57
2023/03/11 03:07:47;;;;;;;6.50;2.87;;;2.10;99.90;;;;;;5116551;28;20504;-57
2023/03/11 03:10:14;;;;;;;6.63;1.50;;;2.00;99.90;;;;;;5116524;28;20474;-57
2023/03/11 03:12:41;;;;;;;5.93;1.90;;;2.10;99.90;;;;;;5116333;28;20481;-57
2023/03/11 03:15:09;;;;;;;3.90;1.30;;;2.10;99.90;;;;;;5116378;28;20492;-57
2023/03/11 03:17:38;;;;;;;6.47;1.63;;;2.10;99.90;;;;;;5116352;28;20478;-57
2023/03/11 03:20:10;;;;;;;4.70;1.97;;;2.10;99.90;;;;;;5116208;28;20447;-57
2023/03/11 03:22:37;;;;;;;9.60;1.70;;;2.10;99.90;;;;;;5116246;28;20466;-57
2023/03/11 03:25:04;;;;;;;4.90;1.57;;;2.10;99.90;;;;;;5116109;28;20447;-57
2023/03/11 03:27:31;;;;;;;3.53;1.37;;;2.10;99.90;;;;;;5116093;28;20443;-57
2023/03/11 03:29:58;;;;;;;12.53;2.47;;;2.10;99.90;;;;;;5116040;28;20450;-57
2023/03/11 03:32:25;;;;;;;4.80;1.50;;;2.10;99.90;;;;;;5115935;28;20509;-57
2023/03/11 03:34:57;;;;;;;6.00;1.60;;;2.10;99.90;;;;;;5116146;28;20442;-57
2023/03/11 03:37:23;;;;;;;7.70;1.97;;;2.10;99.90;;;;;;5115686;28;20800;-57
2023/03/11 03:39:50;;;;;;;12.70;2.10;;;2.10;99.90;;;;;;5115922;28;20439;-57
2023/03/11 03:42:17;;;;;;;5.23;2.20;;;2.20;99.90;;;;;;5115896;28;20540;-57
2023/03/11 03:44:44;;;;;;;8.53;2.40;;;2.20;99.90;;;;;;5115589;28;20438;-57
2023/03/11 03:47:10;;;;;;;4.93;1.87;;;2.20;99.90;;;;;;5115780;28;20858;-57
2023/03/11 03:49:37;;;;;;;4.30;1.80;;;2.20;99.90;;;;;;5115678;28;20474;-57
2023/03/11 03:52:07;;;;;;;6.10;1.60;;;2.10;99.90;;;;;;5115580;28;20482;-57
2023/03/11 03:54:34;;;;;;;8.23;2.10;;;2.10;99.90;;;;;;5115645;28;20442;-57
2023/03/11 03:57:00;;;;;;;8.07;1.80;;;2.00;99.90;;;;;;5115551;28;20446;-57
2023/03/11 03:59:27;;;;;;;6.07;1.63;;;2.00;99.90;;;;;;5115697;28;20851;-57
2023/03/11 04:01:54;;;;;;;4.40;1.77;;;2.00;99.90;;;;;;5115657;28;20467;-57
2023/03/11 04:04:21;;;;;;;5.40;1.67;;;2.00;99.90;;;;;;5116136;28;20438;-57
2023/03/11 04:06:48;;;;;;;11.93;2.27;;;2.00;99.90;;;;;;5117001;28;20524;-57
2023/03/11 04:09:16;;;;;;;8.33;1.80;;;2.00;99.90;;;;;;5116110;28;20442;-57
2023/03/11 04:11:43;;;;;;;6.73;2.00;;;1.90;99.90;;;;;;5115374;28;21014;-57
2023/03/11 04:14:09;;;;;;;4.30;1.67;;;2.00;99.90;;;;;;5115160;28;20850;-57
2023/03/11 04:16:36;;;;;;;6.53;1.73;;;2.00;99.90;;;;;;5115159;28;20936;-57
2023/03/11 04:19:04;;;;;;;6.80;1.80;;;1.90;99.90;;;;;;5115244;28;20877;-57
2023/03/11 04:21:31;;;;;;;8.83;1.93;;;2.00;99.90;;;;;;5115151;28;20856;-57
2023/03/11 04:23:57;;;;;;;5.43;1.77;;;2.00;99.90;;;;;;5114761;28;20859;-57
2023/03/11 04:26:27;;;;;;;5.47;2.20;;;2.00;99.90;;;;;;5115077;28;20450;-57
2023/03/11 04:28:54;;;;;;;2.67;1.83;;;2.00;99.90;;;;;;5115044;28;20454;-57
2023/03/11 04:31:20;;;;;;;13.07;1.73;;;2.10;99.90;;;;;;5115021;28;20450;-57
2023/03/11 04:33:47;;;;;;;6.33;2.53;;;2.20;99.90;;;;;;5114779;28;20486;-57
2023/03/11 04:36:14;;;;;;;4.57;1.90;;;2.20;99.90;;;;;;5114887;28;20441;-57
2023/03/11 04:38:40;;;;;;;4.70;2.00;;;2.10;99.90;;;;;;5114599;28;20462;-57
2023/03/11 04:41:08;;;;;;;5.03;1.87;;;2.10;99.90;;;;;;5114747;28;20443;-57
2023/03/11 04:43:36;;;;;;;10.77;2.43;;;2.10;99.90;;;;;;5114362;28;20463;-57
2023/03/11 04:46:03;;;;;;;6.30;2.37;;;2.10;99.90;;;;;;5115242;28;20472;-57
2023/03/11 04:48:29;;;;;;;5.00;2.37;;;2.10;99.90;;;;;;5114715;28;20451;-57
2023/03/11 04:50:56;;;;;;;4.60;1.80;;;2.10;99.90;;;;;;5114579;28;20438;-57
2023/03/11 04:53:23;;;;;;;7.00;2.10;;;2.10;99.90;;;;;;5114437;28;20486;-57
2023/03/11 04:55:51;;;;;;;5.87;2.20;;;2.10;99.90;;;;;;5114561;28;20451;-57
2023/03/11 04:58:17;;;;;;;8.20;1.93;;;2.10;99.90;;;;;;5114401;28;20438;-57
2023/03/11 05:00:46;;;;;;;7.90;1.93;;;2.10;99.90;;;;;;5114399;28;20454;-57
2023/03/11 05:03:12;;;;;;;5.43;2.00;;;2.10;99.90;;;;;;5114805;28;20458;-57
2023/03/11 05:05:39;;;;;;;5.10;2.30;;;2.10;99.90;;;;;;5114409;28;20469;-57
2023/03/11 05:08:06;;;;;;;7.47;2.40;;;2.10;99.90;;;;;;5113827;28;20446;-57
2023/03/11 05:10:33;;;;;;;6.43;2.33;;;2.10;99.90;;;;;;5114196;28;20442;-57
2023/03/11 05:13:00;;;;;;;12.27;2.10;;;2.10;99.90;;;;;;5114075;28;20482;-57
2023/03/11 05:15:27;;;;;;;7.50;2.50;;;2.10;99.90;;;;;;5114194;28;20447;-57
2023/03/11 05:17:55;;;;;;;4.77;2.30;;;2.20;99.90;;;;;;5114096;28;20447;-57
2023/03/11 05:20:22;;;;;;;4.37;1.90;;;2.30;99.90;;;;;;5114018;28;20813;-57
2023/03/11 05:22:49;;;;;;;4.67;2.33;;;2.30;99.90;;;;;;5113933;28;20830;-57
2023/03/11 05:25:15;;;;;;;5.07;1.97;;;2.30;99.90;;;;;;5113721;28;20932;-57
2023/03/11 05:27:42;;;;;;;7.00;2.77;;;2.40;99.90;;;;;;5113965;28;20446;-57
2023/03/11 05:30:10;;;;;;;4.20;2.10;;;2.40;99.90;;;;;;5113595;28;20940;-57
2023/03/11 05:32:37;;;;;;;4.30;2.30;;;2.40;99.90;;;;;;5113812;28;20486;-57
2023/03/11 05:35:06;;;;;;;6.17;2.57;;;2.40;99.90;;;;;;5113817;28;20450;-57
2023/03/11 05:37:34;;;;;;;10.03;2.97;;;2.40;99.90;;;;;;5113682;28;20538;-58
2023/03/11 05:40:00;;;;;;;4.90;2.40;;;2.40;99.90;;;;;;5113763;28;20435;-57
2023/03/11 05:42:27;;;;;;;11.33;2.47;;;2.50;99.90;;;;;;5113726;28;20466;-57
2023/03/11 05:44:54;;;;;;;4.80;2.10;;;2.50;99.90;;;;;;5113823;28;20434;-57
2023/03/11 05:47:20;;;;;;;3.37;2.43;;;2.50;99.90;;;;;;5113749;28;20439;-57
2023/03/11 05:49:48;;;;;;;4.07;2.10;;;2.50;99.90;;;;;;5113697;28;20842;-57
2023/03/11 05:52:16;;;;;;;5.47;2.20;;;2.60;99.90;;;;;;5113559;28;20569;-57
2023/03/11 05:54:43;;;;;;;6.83;2.23;;;2.70;99.90;;;;;;5113552;28;20443;-57
2023/03/11 05:57:10;;;;;;;7.07;2.83;;;2.60;99.90;;;;;;5113724;28;20450;-57
2023/03/11 05:59:37;;;;;;;7.80;2.80;;;2.60;99.90;;;;;;5113670;28;20449;-57
2023/03/11 06:02:04;;;;;;;7.53;2.30;;;2.60;99.90;;;;;;5113553;28;20498;-57
2023/03/11 06:04:30;;;;;;;8.63;2.50;;;2.60;99.90;;;;;;5113703;28;20450;-57
2023/03/11 06:06:57;;;;;;;6.90;3.50;;;2.60;99.90;;;;;;5113688;28;20537;-57
2023/03/11 06:09:25;;;;;;;8.83;2.80;;;2.60;99.90;;;;;;5113498;28;20445;-57
2023/03/11 06:11:52;;;;;;;4.07;2.40;;;2.70;99.90;;;;;;5113540;28;20545;-57
2023/03/11 06:14:19;;;;;;;4.77;2.93;;;2.70;99.90;;;;;;5113523;28;20478;-57
2023/03/11 06:16:46;;;;;;;10.10;2.60;;;2.70;99.90;;;;;;5113247;28;20993;-57
2023/03/11 06:19:13;;;;;;;6.43;2.57;;;2.70;99.90;;;;;;5113453;28;20455;-57
2023/03/11 06:21:40;;;;;;;4.80;2.80;;;2.60;99.90;;;;;;5116579;28;20466;-58
2023/03/11 06:24:07;;;;;;;8.33;3.60;;;2.60;99.90;;;;;;5117434;28;20447;-57
2023/03/11 06:26:35;;;;;;;9.47;2.60;;;2.60;99.90;;;;;;5117431;28;20471;-57
2023/03/11 06:29:01;;;;;;;5.70;3.17;;;2.60;99.90;;;;;;5117328;28;20806;-57
2023/03/11 06:31:29;;;;;;;11.63;2.77;;;2.60;99.90;;;;;;5117342;28;20443;-57
2023/03/11 06:33:58;;;;;;;4.40;3.20;;;2.60;99.90;;;;;;5117138;28;20497;-57
2023/03/11 06:36:25;;;;;;;7.00;3.10;;;2.60;99.90;;;;;;5117118;28;20497;-57
2023/03/11 06:38:53;;;;;;;10.23;3.40;;;2.60;99.90;;;;;;5116742;28;20985;-57
2023/03/11 06:41:20;;;;;;;6.87;3.17;;;2.60;99.90;;;;;;5117076;28;20454;-57
2023/03/11 06:43:48;;;;;;;5.93;2.97;;;2.60;99.90;;;;;;5117061;28;20470;-57
2023/03/11 06:46:17;;;;;;;6.70;3.27;;;2.60;99.90;;;;;;5117040;28;20451;-57
2023/03/11 06:48:45;;;;;;;12.13;3.23;;;2.50;99.90;;;;;;5117200;28;20446;-57
2023/03/11 06:51:13;;;;;;;4.37;3.33;;;2.50;99.90;;;;;;5117148;28;20478;-57
2023/03/11 06:53:40;;;;;;;11.40;3.57;;;2.50;99.90;;;;;;5117025;28;20510;-58
2023/03/11 06:56:08;;;;;;;5.17;3.40;;;2.50;99.90;;;;;;5116603;28;20936;-57
2023/03/11 06:58:36;;;;;;;7.87;3.40;;;2.50;99.90;;;;;;5118165;28;20859;-57
2023/03/11 07:01:07;;;;;;;9.50;3.70;;;2.50;99.90;;;;;;5118246;28;20495;-57
2023/03/11 07:03:34;;;;;;;12.63;3.80;;;2.60;99.90;;;;;;5117760;28;20463;-57
2023/03/11 07:06:01;;;;;;;14.27;3.50;;;2.60;99.90;;;;;;5117631;28;20438;-58
2023/03/11 07:08:29;;;;;;;6.47;4.10;;;2.50;99.90;;;;;;5116942;28;20447;-57
2023/03/11 07:11:04;;;;;;;7.70;3.40;;;2.50;99.90;;;;;;5116729;28;20484;-57
2023/03/11 07:13:32;;;;;;;5.57;3.63;;;2.50;99.90;;;;;;5116525;28;20478;-57
2023/03/11 07:16:05;;;;;;;5.63;3.97;;;2.50;99.90;;;;;;5116347;28;20944;-57
2023/03/11 07:18:33;;;;;;;7.83;3.70;;;2.60;99.90;;;;;;5116442;28;20431;-57
2023/03/11 07:21:01;;;;;;;12.70;3.90;;;2.50;99.90;;;;;;5116485;28;20442;-57
2023/03/11 07:23:28;;;;;;;8.00;4.13;;;2.50;99.90;;;;;;5116487;28;20533;-57
2023/03/11 07:25:55;;;;;;;10.00;4.30;;;2.60;99.90;;;;;;5116452;28;20450;-57
2023/03/11 07:28:22;;;;;;;7.80;3.70;;;2.70;99.90;;;;;;5116155;28;20443;-57
2023/03/11 07:30:49;;;;;;;12.90;3.77;;;2.70;99.90;;;;;;5115855;28;20445;-57
2023/03/11 07:33:17;;;;;;;9.30;4.40;;;2.70;99.90;;;;;;5116013;28;20483;-57
2023/03/11 07:35:44;;;;;;;6.00;3.90;;;2.70;99.90;;;;;;5116037;28;20450;-57
2023/03/11 07:38:12;;;;;;;10.37;3.33;;;2.70;99.90;;;;;;5115934;28;20555;-57
2023/03/11 07:40:38;;;;;;;6.90;3.63;;;2.80;99.90;;;;;;5115990;28;20500;-57
2023/03/11 07:43:05;;;;;;;8.37;3.40;;;2.80;99.90;;;;;;5116068;28;20466;-57
2023/03/11 07:45:32;;;;;;;14.63;4.00;;;2.80;99.90;;;;;;5116057;28;20439;-58
2023/03/11 07:47:58;;;;;;;11.73;4.20;;;2.80;99.90;;;;;;5115708;28;20504;-58
2023/03/11 07:50:26;;;;;;;6.93;3.90;;;2.80;99.90;;;;;;5115522;28;20932;-57
2023/03/11 07:52:53;;;;;;;6.83;3.43;;;2.80;99.90;;;;;;5116417;28;20490;-57
2023/03/11 07:55:20;;;;;;;5.07;3.67;;;2.80;99.90;;;;;;5115757;28;20876;-57
2023/03/11 07:57:50;;;;;;;15.93;4.00;;;2.90;99.90;;;;;;5115818;28;20442;-58
2023/03/11 08:00:17;;;;;;;7.00;3.13;;;2.90;99.90;;;;;;5115606;28;20435;-58
2023/03/11 08:02:44;;;;;;;5.30;3.70;;;3.00;99.90;;;;;;5115175;28;20975;-58
2023/03/11 08:05:11;;;;;;;9.23;3.87;;;3.10;99.90;;;;;;5115179;28;20972;-58
2023/03/11 08:07:39;;;;;;;7.10;3.80;;;3.10;99.90;;;;;;5115080;28;20818;-58
2023/03/11 08:10:07;;;;;;;5.63;3.37;;;3.10;99.90;;;;;;5115001;28;20533;-58
2023/03/11 08:12:33;;;;;;;5.30;4.07;;;3.10;99.70;;;;;;5114975;28;20515;-58
2023/03/11 08:15:00;;;;;;;10.07;3.40;;;3.20;99.90;;;;;;5115196;28;20528;-58
2023/03/11 08:17:27;;;;;;;11.00;3.00;;;3.30;99.60;;;;;;5115269;28;20449;-58
2023/03/11 08:19:53;;;;;;;7.23;3.70;;;3.40;99.30;;;;;;5115412;28;20807;-58
2023/03/11 08:22:20;;;;;;;10.97;3.47;;;3.50;99.20;;;;;;5115010;28;20471;-58
2023/03/11 08:24:52;;;;;;;10.33;3.70;;;3.50;98.60;;;;;;5115156;28;20517;-58
2023/03/11 08:27:18;;;;;;;8.00;3.70;;;3.50;98.20;;;;;;5115151;28;20514;-58
2023/03/11 08:29:45;;;;;;;5.07;3.17;;;3.50;98.40;;;;;;5115035;28;20470;-58
2023/03/11 08:32:12;;;;;;;6.40;2.90;;;3.60;98.30;;;;;;5115047;28;20475;-58
2023/03/11 08:34:39;;;;;;;7.77;3.00;;;3.60;97.90;;;;;;5114896;28;20570;-58
2023/03/11 08:37:05;;;;;;;10.07;2.70;;;3.70;98.00;;;;;;5114909;28;20443;-58
2023/03/11 08:39:32;;;;;;;13.90;4.10;;;3.80;97.60;;;;;;5114406;28;20462;-57
2023/03/11 08:42:01;;;;;;;11.70;3.93;;;3.90;97.40;;;;;;5114395;28;20553;-58
2023/03/11 08:44:28;;;;;;;5.13;2.50;;;4.00;97.60;;;;;;5114096;28;20853;-58
2023/03/11 08:46:55;;;;;;;5.10;3.10;;;4.20;97.50;;;;;;5114317;28;20895;-58
2023/03/11 08:49:22;;;;;;;6.00;3.73;;;4.30;96.80;;;;;;5114741;28;20446;-58
2023/03/11 08:51:48;;;;;;;16.93;7.10;;;4.40;96.40;;;;;;5114557;28;20465;-58
2023/03/11 08:54:15;;;;;;;6.43;3.17;;;4.50;95.90;;;;;;5114479;28;20478;-58
2023/03/11 08:56:42;;;;;;;3.97;2.40;;;4.50;94.90;;;;;;5114455;28;20474;-58
2023/03/11 08:59:10;;;;;;;7.20;3.90;;;4.50;94.40;;;;;;5114411;28;20446;-58
2023/03/11 09:01:36;;;;;;;6.97;2.97;;;4.60;94.60;;;;;;5114322;28;20443;-58
2023/03/11 09:04:03;;;;;;;8.43;2.80;;;4.70;95.20;;;;;;5114267;28;20449;-58
2023/03/11 09:06:30;;;;;;;6.73;2.40;;;4.90;95.70;;;;;;5113998;28;20940;-58
2023/03/11 09:08:57;;;;;;;7.70;2.53;;;4.90;93.50;;;;;;5114295;28;20439;-58
2023/03/11 09:11:24;;;;;;;9.00;2.67;;;5.00;93.50;;;;;;5114174;28;20443;-58
2023/03/11 09:13:51;;;;;;;7.50;2.97;;;5.00;93.20;;;;;;5114049;28;20499;-58
2023/03/11 09:16:22;;;;;;;4.03;2.40;;;5.10;93.00;;;;;;5114147;28;20439;-58
2023/03/11 09:18:49;;;;;;;10.07;2.27;;;5.20;92.90;;;;;;5114220;28;20438;-58
2023/03/11 09:21:16;;;;;;;4.50;2.27;;;5.30;93.50;;;;;;5114043;28;20450;-58
2023/03/11 09:23:43;;;;;;;6.23;2.77;;;5.30;93.60;;;;;;5114006;28;20462;-58
2023/03/11 09:26:12;;;;;;;8.07;2.47;;;5.40;92.80;;;;;;5114060;28;20450;-57
2023/03/11 09:28:39;;;;;;;2.33;1.80;;;5.50;92.90;;;;;;5114090;28;20443;-58
2023/03/11 09:31:06;;;;;;;6.23;2.47;;;5.60;91.40;;;;;;5113468;28;20447;-58
2023/03/11 09:33:36;;;;;;;6.03;2.83;;;5.70;90.50;;;;;;5113903;28;20482;-58
2023/03/11 09:36:03;;;;;;;5.43;2.47;;;5.80;90.50;;;;;;5113916;28;20435;-58
2023/03/11 09:38:30;;;;;;;3.20;1.90;;;5.90;89.80;;;;;;5113523;28;20461;-58
2023/03/11 09:41:00;;;;;;;2.97;1.57;;;5.90;84.40;;;;;;5113915;28;20439;-58
2023/03/11 09:43:55;;;;;;;6.90;1.90;;;6.00;80.90;;;;;;5113907;28;20465;-58
2023/03/11 09:46:37;;;;;;;4.83;1.60;;;6.10;81.00;;;;;;5114313;28;20936;-58
2023/03/11 09:49:17;;;;;;;4.07;1.80;;;6.20;83.60;;;;;;5114680;28;20427;-58
2023/03/11 09:51:51;;;;;;;4.37;1.30;;;6.50;85.30;;;;;;5114172;28;20455;-58
2023/03/11 09:54:18;;;;;;;2.07;1.13;;;6.80;84.90;;;;;;5114971;28;20459;-58
2023/03/11 09:56:45;;;;;;;2.60;1.30;;;7.20;79.30;;;;;;5118205;28;20443;-58
2023/03/11 09:59:19;;;;;;;1.50;0.70;;;7.30;67.40;;;;;;5117956;28;20459;-58
2023/03/11 10:01:49;;;;;;;2.53;1.20;;;7.50;66.10;;;;;;5118056;28;20459;-58
2023/03/11 10:04:42;;;;;;;3.70;1.50;;;7.70;66.00;;;;;;5117820;28;20443;-58
2023/03/11 10:07:17;;;;;;;8.00;4.73;;;7.90;68.80;;;;;;5118293;28;20437;-58
2023/03/11 10:09:50;;;;;;;5.50;1.70;;;8.00;65.70;;;;;;5118161;28;20517;-58
2023/03/11 10:12:29;;;;;;;2.30;0.90;;;8.10;66.00;;;;;;5117739;28;20462;-58
2023/03/11 10:15:24;;;;;;;1.90;1.00;;;8.30;66.10;;;;;;5117398;28;20982;-58
2023/03/11 10:18:04;;;;;;;4.27;1.40;;;8.30;66.30;;;;;;5099388;28;20453;-58
2023/03/11 10:20:43;;;;;;;1.80;1.50;;;8.40;64.80;;;;;;5117602;28;20484;-58
2023/03/11 10:23:24;;;;;;;2.50;1.20;;;8.70;63.90;;;;;;5117572;28;20825;-58
2023/03/11 10:26:00;;;;;;;2.00;0.80;;;8.70;56.90;;;;;;5117511;28;20438;-58
2023/03/11 10:28:33;;;;;;;1.40;0.80;;;8.60;52.20;;;;;;5117603;28;20437;-58
2023/03/11 10:31:06;;;;;;;3.27;1.20;;;8.50;51.50;;;;;;5117008;28;20800;-58
2023/03/11 10:33:38;;;;;;;3.23;1.10;;;8.60;51.80;;;;;;5117188;28;20463;-58
2023/03/11 10:36:11;;;;;;;2.50;0.97;;;8.80;52.90;;;;;;5117271;28;20435;-58
2023/03/11 10:38:45;;;;;;;6.60;1.30;;;9.10;51.40;;;;;;5117005;28;20462;-58
2023/03/11 10:41:17;;;;;;;4.30;1.23;;;9.40;51.70;;;;;;5117193;28;20805;-58
2023/03/11 10:43:46;;;;;;;1.90;1.20;;;10.00;48.70;;;;;;5117031;28;20531;-58
2023/03/11 10:46:20;;;;;;;3.87;1.17;;;10.60;48.70;;;;;;5117051;28;20451;-58
2023/03/11 10:48:46;;;;;;;4.77;1.33;;;11.30;49.00;;;;;;5117079;28;20480;-58
2023/03/11 10:51:21;;;;;;;3.80;1.10;;;11.90;47.90;;;;;;5116584;28;20450;-58
2023/03/11 10:53:50;;;;;;;1.83;0.83;;;12.50;46.60;;;;;;5116844;28;20466;-58
2023/03/11 10:56:32;;;;;;;2.40;0.70;;;12.90;46.60;;;;;;5116638;28;20944;-58
2023/03/11 10:59:00;;;;;;;2.90;0.83;;;13.30;47.50;;;;;;5116573;28;20847;-58
2023/03/11 11:01:27;;;;;;;2.73;1.20;;;13.50;46.10;;;;;;5116330;28;20936;-58
2023/03/11 11:03:56;;;;;;;0.77;0.77;;;13.60;46.30;;;;;;5116573;28;20463;-58
2023/03/11 11:06:27;;;;;;;3.33;1.07;;;13.60;43.90;;;;;;5115586;28;20820;-58
2023/03/11 11:09:15;;;;;;;4.87;1.30;;;13.40;41.30;;;;;;5116619;28;20431;-58
2023/03/11 11:11:42;;;;;;;2.50;1.10;;;13.10;42.40;;;;;;5116598;28;20513;-58
2023/03/11 11:14:10;;;;;;;5.60;1.20;;;12.80;41.10;;;;;;5116379;28;20482;-58
2023/03/11 11:16:37;;;;;;;2.60;1.40;;;12.40;40.40;;;;;;5116531;28;20542;-58
2023/03/11 11:19:08;;;;;;;2.40;1.30;;;12.10;42.10;;;;;;5116354;28;20443;-58
2023/03/11 11:21:38;;;;;;;3.50;0.97;;;11.80;41.50;;;;;;5116181;28;20461;-58
2023/03/11 11:24:14;;;;;;;2.90;1.20;;;11.20;41.80;;;;;;5116484;28;20424;-58
2023/03/11 11:26:41;;;;;;;1.93;1.10;;;10.60;44.80;;;;;;5116321;28;20827;-58
2023/03/11 11:29:14;;;;;;;3.50;1.27;;;10.30;46.80;;;;;;5116213;28;20450;-58
2023/03/11 11:31:42;;;;;;;2.30;1.03;;;9.90;45.50;;;;;;5116121;28;20439;-58
2023/03/11 11:34:29;;;;;;;2.53;1.30;;;9.50;45.30;;;;;;5116121;28;20550;-58
2023/03/11 11:36:59;;;;;;;6.37;1.27;;;9.20;47.20;;;;;;5116027;28;20436;-58
2023/03/11 11:39:28;;;;;;;2.33;1.10;;;9.00;47.60;;;;;;5115655;28;20462;-58
2023/03/11 11:41:56;;;;;;;5.33;0.90;;;9.00;48.20;;;;;;5115935;28;20467;-58
2023/03/11 11:44:29;;;;;;;4.00;0.83;;;9.20;49.30;;;;;;5115901;28;20479;-57
2023/03/11 11:47:00;;;;;;;3.30;1.30;;;9.30;48.50;;;;;;5115603;28;20798;-58
2023/03/11 11:49:30;;;;;;;3.03;1.13;;;9.40;46.40;;;;;;5115969;28;20438;-58
2023/03/11 11:52:02;;;;;;;3.67;1.03;;;9.80;46.30;;;;;;5115737;28;20494;-58
2023/03/11 11:54:33;;;;;;;2.27;0.90;;;10.60;47.20;;;;;;5115372;28;20983;-58
2023/03/11 11:57:01;;;;;;;1.67;1.00;;;11.70;46.20;;;;;;5115684;28;20438;-58
2023/03/11 11:59:30;;;;;;;3.33;1.10;;;12.60;45.50;;;;;;5115596;28;20450;-58
2023/03/11 12:02:07;;;;;;;3.43;1.33;;;13.50;41.80;;;;;;5115487;28;20473;-58
2023/03/11 12:04:49;;;;;;;1.83;1.20;;;13.90;40.80;;;;;;5115296;28;20472;-59
2023/03/11 12:07:44;;;;;;;3.63;0.73;;;14.20;41.40;;;;;;5115190;28;20930;-58
2023/03/11 12:10:20;;;;;;;5.20;1.10;;;14.30;40.20;;;;;;5115108;28;20802;-58
2023/03/11 12:13:14;;;;;;;4.33;1.47;;;14.20;37.90;;;;;;5115357;28;20454;-58
2023/03/11 12:15:45;;;;;;;7.70;1.57;;;13.60;37.70;;;;;;5104113;28;20489;-58
2023/03/11 12:18:20;;;;;;;3.00;1.33;;;12.90;38.40;;;;;;5114208;28;20443;-58
2023/03/11 12:20:52;;;;;;;3.50;0.90;;;13.00;40.90;;;;;;5116081;28;20769;-58
2023/03/11 12:23:31;;;;;;;2.87;1.10;;;13.30;41.10;;;;;;5115088;28;20467;-58
2023/03/11 12:26:13;;;;;;;2.00;0.90;;;13.40;39.70;;;;;;5115120;28;20502;-58
2023/03/11 12:28:45;;;;;;;2.83;1.27;;;13.10;37.80;;;;;;5115101;28;20442;-58
2023/03/11 12:31:13;;;;;;;5.73;1.30;;;12.80;38.30;;;;;;5115108;28;20780;-58
2023/03/11 12:33:42;;;;;;;2.17;1.10;;;12.50;38.20;;;;;;5115034;28;20466;-58
2023/03/11 12:36:23;;;;;;;3.40;1.37;;;12.50;37.40;;;;;;5116250;28;20491;-58
2023/03/11 12:38:53;;;;;;;5.70;1.37;;;12.60;38.30;;;;;;5115629;28;20498;-58
2023/03/11 12:41:32;;;;;;;2.47;0.90;;;13.10;37.30;;;;;;5115469;28;20799;-58
2023/03/11 12:44:23;;;;;;;2.07;1.00;;;13.70;37.60;;;;;;5115143;28;20447;-58
2023/03/11 12:47:18;;;;;;;7.37;2.50;;;14.60;37.80;;;;;;5115312;28;20432;-58
2023/03/11 12:49:46;;;;;;;3.87;1.20;;;15.40;33.80;;;;;;5114811;28;20439;-59
2023/03/11 12:52:28;;;;;;;2.53;0.90;;;16.30;35.70;;;;;;5114774;28;20458;-59
2023/03/11 12:55:37;;;;;;;3.23;1.13;;;17.20;30.90;;;;;;5114847;28;20516;-59
2023/03/11 12:58:43;;;;;;;7.43;1.40;;;18.00;31.40;;;;;;5115073;28;20496;-59
2023/03/11 13:01:50;;;;;;;5.77;1.10;;;18.60;33.00;;;;;;5114666;28;20431;-59
2023/03/11 13:04:47;;;;;;;2.37;0.70;;;18.40;28.00;;;;;;5093926;28;20446;-59
2023/03/11 13:07:45;;;;;;;4.87;1.50;;;17.70;29.30;;;;;;5110491;28;20454;-59
2023/03/11 13:10:34;;;;;;;1.40;0.60;;;17.60;29.70;;;;;;5114383;28;20431;-59